Time;durP1;ratioP1;P1;durP2;ratioP2;P2;SDS_P1;SDS_P2;PMS_P1;PMS_P2;Temp;Humidity;BMP_temperature;BMP_pressure;BME280_temperature;BME280_humidity;BME280_pressure;Samples;Min_cycle;Max_cycle;Signal;HPM_P1;HPM_P2
2021/04/18 00:00:29;;;;;;;10.23;3.83;;;8.00;86.00;;;;;;2105790;28;20032;-69
2021/04/18 00:01:30;;;;;;;7.82;3.90;;;8.00;87.00;;;;;;2105525;28;20052;-69
2021/04/18 00:02:30;;;;;;;6.10;3.38;;;7.90;88.00;;;;;;2105152;28;20062;-69
2021/04/18 00:03:31;;;;;;;7.03;3.83;;;7.90;87.20;;;;;;2104866;28;20025;-69
2021/04/18 00:04:31;;;;;;;6.93;4.07;;;7.90;86.50;;;;;;2101685;28;20096;-69
2021/04/18 00:05:32;;;;;;;6.78;3.50;;;7.90;86.60;;;;;;2096472;28;20107;-69
2021/04/18 00:06:37;;;;;;;7.60;4.13;;;7.90;87.30;;;;;;2096370;28;20059;-69
2021/04/18 00:07:37;;;;;;;5.75;3.50;;;7.90;88.70;;;;;;2097032;28;20036;-69
2021/04/18 00:08:38;;;;;;;6.45;4.38;;;7.80;88.80;;;;;;2097133;28;20048;-69
2021/04/18 00:09:39;;;;;;;5.60;3.75;;;7.80;89.30;;;;;;2097114;28;20024;-69
2021/04/18 00:10:40;;;;;;;6.75;4.50;;;7.80;87.90;;;;;;2097019;28;20029;-69
2021/04/18 00:11:41;;;;;;;6.47;3.60;;;7.80;88.80;;;;;;2097327;28;20034;-69
2021/04/18 00:12:42;;;;;;;7.43;4.03;;;7.70;87.10;;;;;;2096454;28;20067;-69
2021/04/18 00:13:43;;;;;;;7.95;4.18;;;7.70;88.20;;;;;;2097349;28;20024;-69
2021/04/18 00:14:44;;;;;;;5.00;4.38;;;7.70;89.20;;;;;;2096704;28;20039;-69
2021/04/18 00:15:45;;;;;;;4.63;3.58;;;7.70;89.20;;;;;;2099156;28;20020;-69
2021/04/18 00:16:46;;;;;;;7.82;4.38;;;7.70;88.00;;;;;;2104943;28;20057;-69
2021/04/18 00:17:46;;;;;;;4.28;3.38;;;7.60;89.10;;;;;;2105438;28;20463;-69
2021/04/18 00:18:47;;;;;;;7.40;3.40;;;7.60;89.10;;;;;;2105450;28;20027;-69
2021/04/18 00:19:48;;;;;;;8.15;4.70;;;7.60;88.70;;;;;;2104457;28;20047;-69
2021/04/18 00:20:48;;;;;;;8.40;3.92;;;7.60;89.60;;;;;;2100939;28;20028;-68
2021/04/18 00:21:49;;;;;;;6.55;3.90;;;7.60;90.10;;;;;;2099236;28;20191;-68
2021/04/18 00:22:49;;;;;;;9.00;4.63;;;7.50;90.30;;;;;;2104179;28;20077;-68
2021/04/18 00:23:50;;;;;;;5.22;3.38;;;7.50;90.70;;;;;;2105298;28;20024;-68
2021/04/18 00:24:51;;;;;;;6.05;3.53;;;7.50;90.80;;;;;;2105746;28;20020;-69
2021/04/18 00:25:51;;;;;;;5.78;4.05;;;7.50;90.80;;;;;;2104627;28;20066;-69
2021/04/18 00:26:52;;;;;;;8.95;4.15;;;7.50;91.00;;;;;;2104724;28;20031;-69
2021/04/18 00:27:53;;;;;;;6.63;3.38;;;7.50;91.10;;;;;;2104734;28;20054;-69
2021/04/18 00:28:54;;;;;;;6.13;3.55;;;7.40;90.70;;;;;;2104652;28;20683;-69
2021/04/18 00:29:54;;;;;;;4.63;3.63;;;7.40;90.40;;;;;;2105576;28;20433;-69
2021/04/18 00:30:55;;;;;;;7.57;4.70;;;7.40;89.30;;;;;;2097493;28;20040;-69
2021/04/18 00:31:55;;;;;;;6.93;4.38;;;7.40;90.80;;;;;;2099157;28;20029;-69
2021/04/18 00:32:56;;;;;;;9.73;5.15;;;7.40;91.30;;;;;;2104914;28;20033;-69
2021/04/18 00:33:56;;;;;;;4.95;3.78;;;7.30;91.30;;;;;;2105281;28;20024;-68
2021/04/18 00:34:57;;;;;;;8.93;4.78;;;7.30;91.50;;;;;;2103111;28;20487;-68
2021/04/18 00:35:57;;;;;;;7.93;4.70;;;7.30;91.80;;;;;;2089032;28;20043;-69
2021/04/18 00:36:58;;;;;;;8.32;4.43;;;7.30;92.00;;;;;;2092742;28;20024;-69
2021/04/18 00:37:59;;;;;;;8.50;4.40;;;7.30;91.90;;;;;;2097120;28;20035;-69
2021/04/18 00:38:59;;;;;;;7.70;4.50;;;7.20;91.90;;;;;;2096541;28;20371;-68
2021/04/18 00:40:00;;;;;;;8.27;4.47;;;7.20;91.90;;;;;;2097118;28;20039;-69
2021/04/18 00:41:01;;;;;;;10.55;4.32;;;7.20;92.20;;;;;;2097110;28;20028;-68
2021/04/18 00:42:02;;;;;;;7.95;5.13;;;7.20;92.20;;;;;;2096595;28;20531;-68
2021/04/18 00:43:04;;;;;;;7.40;4.30;;;7.20;92.40;;;;;;2096316;28;20021;-68
2021/04/18 00:44:05;;;;;;;7.75;4.82;;;7.20;92.50;;;;;;2096882;28;20106;-68
2021/04/18 00:45:07;;;;;;;7.68;4.47;;;7.20;92.50;;;;;;2097202;28;20029;-68
2021/04/18 00:46:10;;;;;;;8.15;4.35;;;7.10;92.60;;;;;;2096987;28;20052;-68
2021/04/18 00:47:12;;;;;;;5.30;3.58;;;7.10;92.60;;;;;;2096894;28;20100;-69
2021/04/18 00:48:12;;;;;;;7.05;3.70;;;7.10;92.30;;;;;;2096124;28;20481;-69
2021/04/18 00:49:13;;;;;;;7.90;5.13;;;7.10;91.70;;;;;;2096245;28;20066;-69
2021/04/18 00:50:20;;;;;;;6.57;4.20;;;7.10;92.30;;;;;;2100476;28;20024;-68
2021/04/18 00:51:21;;;;;;;5.03;3.45;;;7.10;92.90;;;;;;2101184;28;20036;-68
2021/04/18 00:52:22;;;;;;;5.30;4.15;;;7.00;92.40;;;;;;2096095;28;20032;-68
2021/04/18 00:53:22;;;;;;;10.07;4.30;;;7.00;91.70;;;;;;2096683;28;20024;-69
2021/04/18 00:54:23;;;;;;;9.77;4.65;;;7.00;92.60;;;;;;2096535;28;20020;-69
2021/04/18 00:55:27;;;;;;;8.10;4.30;;;7.00;92.70;;;;;;2102636;28;20073;-68
2021/04/18 00:56:28;;;;;;;7.93;5.00;;;7.00;93.00;;;;;;2100922;28;20490;-69
2021/04/18 00:57:28;;;;;;;5.53;3.90;;;6.90;93.30;;;;;;2096945;28;20456;-68
2021/04/18 00:58:29;;;;;;;6.22;3.60;;;6.90;92.20;;;;;;2096892;28;20120;-68
2021/04/18 00:59:30;;;;;;;8.02;4.50;;;6.90;91.90;;;;;;2097102;28;20143;-68
2021/04/18 01:00:31;;;;;;;5.78;4.18;;;6.90;92.90;;;;;;2096658;28;20029;-69
2021/04/18 01:01:33;;;;;;;8.80;4.35;;;6.90;93.20;;;;;;2102095;28;20107;-69
2021/04/18 01:02:34;;;;;;;9.15;3.80;;;6.90;93.10;;;;;;2095473;28;20067;-68
2021/04/18 01:03:35;;;;;;;5.55;3.92;;;6.90;92.70;;;;;;2104316;28;20028;-69
2021/04/18 01:04:35;;;;;;;5.88;4.55;;;6.90;92.70;;;;;;2104675;28;20035;-69
2021/04/18 01:05:36;;;;;;;5.68;3.88;;;6.80;93.50;;;;;;2105228;28;20646;-68
2021/04/18 01:06:36;;;;;;;5.43;3.67;;;6.80;93.20;;;;;;2097496;28;20033;-68
2021/04/18 01:07:37;;;;;;;6.78;4.20;;;6.80;92.00;;;;;;2096826;28;20052;-68
2021/04/18 01:08:38;;;;;;;4.22;3.83;;;6.80;92.20;;;;;;2096848;28;20029;-68
2021/04/18 01:09:38;;;;;;;5.10;4.25;;;6.80;92.90;;;;;;2096458;28;20029;-68
2021/04/18 01:10:39;;;;;;;5.75;4.45;;;6.80;93.00;;;;;;2096495;28;20107;-68
2021/04/18 01:11:40;;;;;;;7.10;4.53;;;6.80;93.60;;;;;;2096920;28;20028;-68
2021/04/18 01:12:41;;;;;;;6.43;4.30;;;6.80;94.20;;;;;;2096237;28;20116;-68
2021/04/18 01:13:41;;;;;;;9.52;4.75;;;6.70;94.60;;;;;;2096914;28;20048;-68
2021/04/18 01:14:42;;;;;;;4.75;4.25;;;6.70;94.60;;;;;;2096457;28;20026;-68
2021/04/18 01:15:43;;;;;;;9.23;4.75;;;6.70;94.60;;;;;;2096382;28;20033;-68
2021/04/18 01:16:45;;;;;;;6.53;4.45;;;6.70;94.00;;;;;;2096602;28;20095;-68
2021/04/18 01:17:46;;;;;;;5.95;3.85;;;6.70;94.70;;;;;;2096591;28;20017;-68
2021/04/18 01:18:47;;;;;;;5.38;4.07;;;6.70;94.30;;;;;;2097399;28;20032;-68
2021/04/18 01:19:47;;;;;;;7.88;4.32;;;6.70;94.60;;;;;;2098596;28;20111;-68
2021/04/18 01:21:00;;;;;;;9.93;5.20;;;6.70;94.50;;;;;;2096590;28;20064;-69
2021/04/18 01:22:01;;;;;;;7.55;4.65;;;6.70;95.60;;;;;;2096603;28;20111;-69
2021/04/18 01:23:01;;;;;;;11.10;4.57;;;6.70;95.30;;;;;;2095878;28;20032;-68
2021/04/18 01:24:02;;;;;;;8.02;4.50;;;6.60;95.40;;;;;;2096662;28;20139;-68
2021/04/18 01:25:04;;;;;;;5.75;4.15;;;6.60;95.20;;;;;;2096386;28;20101;-68
2021/04/18 01:26:05;;;;;;;7.03;4.65;;;6.60;95.20;;;;;;2096656;28;20048;-68
2021/04/18 01:27:06;;;;;;;8.38;4.63;;;6.60;95.20;;;;;;2096472;28;20033;-68
2021/04/18 01:28:08;;;;;;;8.13;4.85;;;6.60;95.70;;;;;;2096618;28;20419;-68
2021/04/18 01:29:09;;;;;;;8.88;4.93;;;6.60;96.00;;;;;;2095914;28;20391;-68
2021/04/18 01:30:12;;;;;;;8.85;4.10;;;6.60;96.30;;;;;;2096967;28;20119;-68
2021/04/18 01:31:13;;;;;;;10.30;4.60;;;6.60;95.90;;;;;;2104777;28;20024;-68
2021/04/18 01:32:15;;;;;;;10.35;4.93;;;6.60;95.70;;;;;;2104138;28;20483;-69
2021/04/18 01:33:18;;;;;;;13.70;4.90;;;6.60;96.40;;;;;;2104991;28;20051;-68
2021/04/18 01:34:18;;;;;;;5.82;4.30;;;6.60;96.30;;;;;;2097689;28;20418;-68
2021/04/18 01:35:19;;;;;;;7.53;4.50;;;6.60;96.60;;;;;;2092158;28;20017;-68
2021/04/18 01:36:21;;;;;;;7.05;4.45;;;6.60;96.70;;;;;;2088234;28;20392;-68
2021/04/18 01:37:22;;;;;;;5.45;4.50;;;6.60;96.70;;;;;;2095986;28;20078;-69
2021/04/18 01:38:22;;;;;;;6.10;4.25;;;6.60;96.40;;;;;;2096627;28;20067;-69
2021/04/18 01:39:23;;;;;;;6.30;4.30;;;6.60;96.30;;;;;;2096531;28;20025;-69
2021/04/18 01:40:25;;;;;;;5.50;4.40;;;6.60;96.60;;;;;;2096203;28;20380;-69
2021/04/18 01:41:26;;;;;;;10.10;5.63;;;6.60;96.60;;;;;;2097097;28;20024;-69
2021/04/18 01:42:27;;;;;;;7.38;4.10;;;6.60;96.90;;;;;;2103710;28;20059;-69
2021/04/18 01:43:28;;;;;;;9.90;4.97;;;6.60;96.80;;;;;;2105002;28;20049;-69
2021/04/18 01:44:28;;;;;;;8.85;5.07;;;6.60;97.20;;;;;;2097327;28;20063;-69
2021/04/18 01:45:29;;;;;;;7.38;4.72;;;6.60;97.10;;;;;;2096428;28;20609;-69
2021/04/18 01:46:30;;;;;;;7.70;4.15;;;6.70;97.40;;;;;;2096325;28;20033;-69
2021/04/18 01:47:31;;;;;;;10.55;4.25;;;6.70;97.40;;;;;;2090836;28;20888;-69
2021/04/18 01:48:33;;;;;;;7.88;5.10;;;6.70;97.60;;;;;;2090111;28;20495;-69
2021/04/18 01:49:34;;;;;;;5.18;4.18;;;6.70;97.90;;;;;;2095279;28;20107;-69
2021/04/18 01:50:43;;;;;;;6.53;4.90;;;6.70;97.60;;;;;;2096256;28;20395;-69
2021/04/18 01:51:43;;;;;;;7.18;4.18;;;6.70;98.30;;;;;;2098275;28;20374;-69
2021/04/18 01:52:45;;;;;;;9.68;4.68;;;6.60;98.30;;;;;;2095805;28;20024;-69
2021/04/18 01:53:46;;;;;;;7.70;3.85;;;6.70;98.50;;;;;;2096203;28;20054;-68
2021/04/18 01:54:46;;;;;;;8.35;4.70;;;6.70;98.10;;;;;;2100342;28;20533;-69
2021/04/18 01:55:47;;;;;;;7.68;4.28;;;6.70;98.10;;;;;;2104729;28;20070;-69
2021/04/18 01:56:48;;;;;;;7.63;5.13;;;6.70;97.80;;;;;;2097140;28;20031;-69
2021/04/18 01:57:49;;;;;;;7.53;4.68;;;6.70;97.80;;;;;;2095012;28;20166;-68
2021/04/18 01:58:49;;;;;;;9.63;5.50;;;6.70;98.40;;;;;;2095784;28;20422;-68
2021/04/18 01:59:50;;;;;;;9.23;5.35;;;6.70;98.80;;;;;;2096449;28;20028;-68
2021/04/18 02:00:51;;;;;;;9.77;4.97;;;6.70;98.90;;;;;;2096948;28;20036;-69
2021/04/18 02:01:51;;;;;;;6.93;5.22;;;6.70;98.70;;;;;;2097415;28;20025;-69
2021/04/18 02:02:52;;;;;;;7.13;4.43;;;6.70;99.00;;;;;;2097664;28;20472;-69
2021/04/18 02:03:53;;;;;;;6.75;5.32;;;6.70;98.90;;;;;;2096747;28;20066;-69
2021/04/18 02:04:53;;;;;;;6.15;4.20;;;6.70;98.40;;;;;;2097036;28;20054;-69
2021/04/18 02:05:54;;;;;;;6.82;4.90;;;6.70;98.00;;;;;;2097064;28;20464;-69
2021/04/18 02:06:54;;;;;;;7.13;4.25;;;6.70;98.00;;;;;;2096929;28;20024;-69
2021/04/18 02:07:55;;;;;;;6.65;4.55;;;6.70;97.80;;;;;;2096881;28;20025;-69
2021/04/18 02:08:56;;;;;;;10.50;5.28;;;6.70;97.70;;;;;;2097483;28;20021;-69
2021/04/18 02:09:56;;;;;;;6.78;4.57;;;6.70;98.60;;;;;;2097475;28;20025;-69
2021/04/18 02:10:57;;;;;;;9.50;5.15;;;6.70;98.80;;;;;;2097281;28;20442;-69
2021/04/18 02:12:02;;;;;;;7.20;4.80;;;6.70;99.10;;;;;;2097704;28;20024;-69
2021/04/18 02:13:03;;;;;;;7.97;5.38;;;6.80;99.10;;;;;;2096851;28;20027;-69
2021/04/18 02:14:04;;;;;;;5.82;4.50;;;6.70;99.30;;;;;;2099807;28;20383;-69
2021/04/18 02:15:06;;;;;;;7.47;4.95;;;6.70;98.60;;;;;;2105830;28;20028;-69
2021/04/18 02:16:07;;;;;;;9.10;4.90;;;6.70;98.60;;;;;;2105926;28;20024;-69
2021/04/18 02:17:07;;;;;;;8.80;5.50;;;6.70;98.80;;;;;;2105735;28;20020;-69
2021/04/18 02:18:08;;;;;;;6.43;4.70;;;6.70;99.10;;;;;;2105807;28;20024;-69
2021/04/18 02:19:08;;;;;;;7.05;4.90;;;6.70;98.80;;;;;;2105875;28;20098;-69
2021/04/18 02:20:10;;;;;;;11.75;5.22;;;6.70;98.30;;;;;;2105992;28;20020;-69
2021/04/18 02:21:10;;;;;;;7.22;4.88;;;6.70;98.60;;;;;;2097826;28;20060;-69
2021/04/18 02:22:11;;;;;;;8.05;4.63;;;6.70;98.80;;;;;;2097158;28;20032;-69
2021/04/18 02:23:11;;;;;;;6.55;4.07;;;6.70;98.20;;;;;;2096926;28;20044;-69
2021/04/18 02:24:13;;;;;;;7.93;5.30;;;6.70;97.90;;;;;;2096756;28;20379;-68
2021/04/18 02:25:14;;;;;;;7.70;4.93;;;6.70;98.50;;;;;;2096396;28;20113;-69
2021/04/18 02:26:14;;;;;;;8.88;4.78;;;6.70;99.10;;;;;;2097621;28;20051;-69
2021/04/18 02:27:15;;;;;;;6.93;4.63;;;6.70;98.90;;;;;;2097456;28;20203;-68
2021/04/18 02:28:15;;;;;;;8.13;4.55;;;6.70;98.80;;;;;;2097617;28;20048;-68
2021/04/18 02:29:16;;;;;;;8.75;5.70;;;6.70;98.70;;;;;;2097399;28;20031;-68
2021/04/18 02:30:17;;;;;;;8.10;5.00;;;6.70;99.00;;;;;;2097536;28;20044;-69
2021/04/18 02:31:17;;;;;;;6.93;5.30;;;6.70;99.20;;;;;;2097555;28;20029;-68
2021/04/18 02:32:18;;;;;;;9.55;4.88;;;6.70;99.30;;;;;;2096976;28;20028;-68
2021/04/18 02:33:19;;;;;;;7.80;5.22;;;6.70;99.30;;;;;;2097436;28;20456;-68
2021/04/18 02:34:19;;;;;;;9.25;4.85;;;6.70;99.40;;;;;;2097602;28;20020;-68
2021/04/18 02:35:20;;;;;;;7.00;4.38;;;6.70;98.90;;;;;;2096965;28;20023;-69
2021/04/18 02:36:20;;;;;;;9.45;4.55;;;6.60;98.80;;;;;;2097422;28;20048;-69
2021/04/18 02:37:21;;;;;;;8.07;4.60;;;6.60;98.10;;;;;;2097494;28;20016;-69
2021/04/18 02:38:22;;;;;;;8.23;4.47;;;6.70;98.70;;;;;;2097500;28;20052;-69
2021/04/18 02:39:22;;;;;;;5.18;4.20;;;6.70;98.80;;;;;;2097239;28;20388;-69
2021/04/18 02:40:23;;;;;;;7.85;5.07;;;6.70;98.60;;;;;;2097395;28;20032;-69
2021/04/18 02:41:23;;;;;;;7.30;4.47;;;6.70;99.00;;;;;;2097511;28;20078;-69
2021/04/18 02:42:24;;;;;;;7.07;4.40;;;6.60;99.20;;;;;;2096018;28;20036;-69
2021/04/18 02:43:24;;;;;;;8.07;4.78;;;6.60;99.20;;;;;;2096756;28;20407;-68
2021/04/18 02:44:25;;;;;;;8.20;4.90;;;6.60;99.60;;;;;;2097048;28;20035;-68
2021/04/18 02:45:26;;;;;;;8.18;4.93;;;6.60;99.60;;;;;;2097018;28;20422;-68
2021/04/18 02:46:26;;;;;;;7.90;5.18;;;6.60;99.70;;;;;;2097478;28;20056;-68
2021/04/18 02:47:27;;;;;;;10.23;5.57;;;6.60;99.90;;;;;;2097453;28;20463;-68
2021/04/18 02:48:27;;;;;;;11.60;4.80;;;6.70;99.90;;;;;;2097349;28;20028;-68
2021/04/18 02:49:28;;;;;;;8.68;5.03;;;6.60;99.90;;;;;;2102268;28;20020;-68
2021/04/18 02:50:29;;;;;;;11.68;4.75;;;6.70;99.90;;;;;;2096637;28;20430;-68
2021/04/18 02:51:30;;;;;;;10.88;5.35;;;6.70;99.90;;;;;;2096728;28;20036;-68
2021/04/18 02:52:31;;;;;;;8.25;5.22;;;6.70;99.90;;;;;;2095818;28;20035;-68
2021/04/18 02:53:32;;;;;;;6.97;4.95;;;6.70;99.90;;;;;;2098208;28;20031;-68
2021/04/18 02:54:32;;;;;;;9.27;4.95;;;6.70;99.90;;;;;;2098667;28;20016;-68
2021/04/18 02:55:33;;;;;;;6.25;5.10;;;6.70;99.90;;;;;;2100047;28;20031;-68
2021/04/18 02:56:33;;;;;;;7.93;4.75;;;6.70;99.90;;;;;;2104747;28;20020;-68
2021/04/18 02:57:34;;;;;;;5.05;4.50;;;6.70;99.90;;;;;;2107069;28;20104;-70
2021/04/18 02:58:34;;;;;;;8.02;5.55;;;6.70;99.90;;;;;;2107291;28;20482;-70
2021/04/18 02:59:35;;;;;;;8.65;6.20;;;6.70;99.90;;;;;;2107547;28;20020;-70
2021/04/18 03:00:35;;;;;;;10.07;5.40;;;6.70;99.90;;;;;;2107436;28;20099;-70
2021/04/18 03:01:37;;;;;;;7.90;5.15;;;6.70;99.90;;;;;;2106876;28;20036;-70
2021/04/18 03:02:37;;;;;;;8.00;5.40;;;6.70;99.90;;;;;;2103397;28;20455;-70
2021/04/18 03:03:38;;;;;;;8.10;5.13;;;6.70;99.90;;;;;;2098539;28;21266;-70
2021/04/18 03:04:38;;;;;;;8.52;6.18;;;6.70;99.90;;;;;;2097849;28;20028;-70
2021/04/18 03:05:39;;;;;;;9.45;5.25;;;6.80;99.90;;;;;;2098417;28;20033;-70
2021/04/18 03:06:40;;;;;;;7.07;5.22;;;6.80;99.90;;;;;;2106426;28;20467;-70
2021/04/18 03:07:40;;;;;;;5.75;4.43;;;6.80;99.90;;;;;;2106363;28;20268;-70
2021/04/18 03:08:41;;;;;;;9.57;5.25;;;6.80;99.90;;;;;;2098718;28;20054;-70
2021/04/18 03:09:41;;;;;;;8.77;5.32;;;6.80;99.90;;;;;;2098302;28;20020;-70
2021/04/18 03:10:42;;;;;;;8.18;5.32;;;6.80;99.90;;;;;;2096696;28;20444;-70
2021/04/18 03:11:42;;;;;;;8.48;5.60;;;6.80;99.90;;;;;;2096324;28;20040;-70
2021/04/18 03:12:43;;;;;;;9.70;5.38;;;6.80;99.90;;;;;;2096758;28;20459;-70
2021/04/18 03:13:45;;;;;;;7.57;5.45;;;6.80;99.90;;;;;;2097725;28;20078;-70
2021/04/18 03:14:46;;;;;;;14.25;5.95;;;6.80;99.90;;;;;;2097628;28;20452;-70
2021/04/18 03:15:46;;;;;;;7.85;5.70;;;6.80;99.90;;;;;;2097201;28;20408;-70
2021/04/18 03:16:47;;;;;;;8.18;5.60;;;6.80;99.90;;;;;;2097620;28;20410;-70
2021/04/18 03:17:48;;;;;;;9.73;5.90;;;6.90;99.90;;;;;;2097234;28;20031;-70
2021/04/18 03:18:48;;;;;;;9.25;6.18;;;6.90;99.90;;;;;;2097618;28;20093;-70
2021/04/18 03:19:49;;;;;;;11.55;5.93;;;6.90;99.90;;;;;;2097610;28;20118;-70
2021/04/18 03:20:49;;;;;;;18.63;7.40;;;6.90;99.90;;;;;;2097689;28;20020;-70
2021/04/18 03:21:50;;;;;;;9.48;6.13;;;6.90;99.90;;;;;;2097983;28;20035;-70
2021/04/18 03:22:50;;;;;;;9.85;5.38;;;6.90;99.90;;;;;;2097165;28;20037;-70
2021/04/18 03:23:51;;;;;;;7.00;5.68;;;6.90;99.90;;;;;;2097387;28;20035;-70
2021/04/18 03:24:51;;;;;;;10.50;6.18;;;6.90;99.90;;;;;;2097590;28;20054;-70
2021/04/18 03:25:52;;;;;;;8.13;6.05;;;6.90;99.90;;;;;;2097936;28;20074;-70
2021/04/18 03:26:53;;;;;;;8.25;5.22;;;6.90;99.90;;;;;;2097506;28;20439;-70
2021/04/18 03:27:53;;;;;;;9.40;5.82;;;7.00;99.90;;;;;;2096920;28;20494;-70
2021/04/18 03:28:54;;;;;;;10.95;5.72;;;7.00;99.90;;;;;;2101840;28;20016;-70
2021/04/18 03:29:54;;;;;;;10.70;5.75;;;7.00;99.90;;;;;;2106119;28;20074;-70
2021/04/18 03:30:55;;;;;;;10.65;6.22;;;7.00;99.90;;;;;;2105765;28;20049;-70
2021/04/18 03:31:55;;;;;;;9.25;5.55;;;7.00;99.90;;;;;;2105854;28;20024;-70
2021/04/18 03:32:56;;;;;;;7.88;6.00;;;7.00;99.90;;;;;;2104508;28;20051;-70
2021/04/18 03:33:57;;;;;;;8.98;5.53;;;7.10;99.90;;;;;;2105216;28;20035;-70
2021/04/18 03:34:57;;;;;;;9.18;5.47;;;7.10;99.90;;;;;;2103588;28;20372;-70
2021/04/18 03:35:58;;;;;;;9.95;5.95;;;7.10;99.90;;;;;;2094491;28;20032;-70
2021/04/18 03:36:58;;;;;;;7.65;5.65;;;7.10;99.90;;;;;;2101863;28;20020;-70
2021/04/18 03:38:00;;;;;;;11.27;6.15;;;7.10;99.90;;;;;;2105742;28;20020;-70
2021/04/18 03:39:01;;;;;;;10.98;6.65;;;7.10;99.90;;;;;;2105911;28;20055;-70
2021/04/18 03:40:02;;;;;;;7.28;5.88;;;7.20;99.90;;;;;;2105747;28;20024;-70
2021/04/18 03:41:03;;;;;;;10.27;6.20;;;7.20;99.90;;;;;;2105834;28;20097;-70
2021/04/18 03:42:04;;;;;;;8.90;6.03;;;7.20;99.90;;;;;;2104935;28;20023;-70
2021/04/18 03:43:05;;;;;;;8.43;6.13;;;7.20;99.90;;;;;;2104605;28;20087;-70
2021/04/18 03:44:06;;;;;;;11.35;5.63;;;7.20;99.90;;;;;;2105606;28;20032;-70
2021/04/18 03:45:07;;;;;;;8.20;6.15;;;7.20;99.90;;;;;;2106015;28;20031;-70
2021/04/18 03:46:07;;;;;;;10.48;6.47;;;7.30;99.90;;;;;;2099767;28;20027;-70
2021/04/18 03:47:08;;;;;;;7.97;6.10;;;7.30;99.90;;;;;;2089686;28;20040;-69
2021/04/18 03:48:09;;;;;;;9.20;6.15;;;7.30;99.90;;;;;;2100025;28;20124;-70
2021/04/18 03:49:09;;;;;;;11.45;6.32;;;7.30;99.90;;;;;;2102125;28;20020;-70
2021/04/18 03:50:11;;;;;;;7.10;5.85;;;7.30;99.90;;;;;;2100477;28;20020;-70
2021/04/18 03:51:12;;;;;;;10.90;6.50;;;7.30;99.90;;;;;;2102194;28;20060;-70
2021/04/18 03:52:12;;;;;;;11.07;6.07;;;7.40;99.90;;;;;;2097001;28;20024;-70
2021/04/18 03:53:13;;;;;;;9.60;5.93;;;7.40;99.90;;;;;;2097316;28;20099;-70
2021/04/18 03:54:14;;;;;;;10.57;6.72;;;7.40;99.90;;;;;;2097378;28;20417;-70
2021/04/18 03:55:15;;;;;;;8.60;6.25;;;7.40;99.90;;;;;;2102125;28;20024;-70
2021/04/18 03:56:15;;;;;;;7.70;6.38;;;7.40;99.90;;;;;;2095862;28;20031;-70
2021/04/18 03:57:16;;;;;;;8.30;6.82;;;7.40;99.90;;;;;;2096668;28;20024;-70
2021/04/18 03:58:17;;;;;;;8.07;5.82;;;7.40;99.90;;;;;;2103047;28;20476;-70
2021/04/18 03:59:18;;;;;;;11.88;7.28;;;7.40;99.90;;;;;;2101484;28;20021;-70
2021/04/18 04:00:19;;;;;;;7.20;6.50;;;7.40;99.90;;;;;;2097621;28;20017;-70
2021/04/18 04:01:20;;;;;;;11.43;7.45;;;7.50;99.90;;;;;;2097065;28;20029;-70
2021/04/18 04:02:21;;;;;;;10.60;7.50;;;7.40;99.90;;;;;;2096558;28;20539;-70
2021/04/18 04:03:21;;;;;;;14.10;7.93;;;7.50;99.90;;;;;;2097625;28;20025;-70
2021/04/18 04:04:22;;;;;;;10.20;7.57;;;7.50;99.90;;;;;;2100442;28;20585;-70
2021/04/18 04:05:23;;;;;;;11.73;8.38;;;7.50;99.90;;;;;;2104853;28;20042;-70
2021/04/18 04:06:23;;;;;;;11.90;8.20;;;7.50;99.90;;;;;;2104866;28;20028;-70
2021/04/18 04:07:24;;;;;;;12.45;8.13;;;7.50;99.90;;;;;;2104943;28;20099;-70
2021/04/18 04:08:24;;;;;;;12.70;8.25;;;7.50;99.90;;;;;;2105461;28;20425;-70
2021/04/18 04:09:25;;;;;;;10.88;7.55;;;7.50;99.90;;;;;;2105388;28;20131;-70
2021/04/18 04:10:25;;;;;;;12.18;7.90;;;7.60;99.90;;;;;;2105908;28;20039;-70
2021/04/18 04:11:26;;;;;;;13.02;8.07;;;7.60;99.90;;;;;;2105361;28;20387;-70
2021/04/18 04:12:27;;;;;;;13.15;7.97;;;7.60;99.90;;;;;;2104900;28;20047;-70
2021/04/18 04:13:28;;;;;;;10.00;7.80;;;7.60;99.90;;;;;;2105753;28;20028;-70
2021/04/18 04:14:29;;;;;;;12.25;7.88;;;7.60;99.90;;;;;;2101465;28;20024;-70
2021/04/18 04:15:29;;;;;;;12.90;8.23;;;7.60;99.90;;;;;;2096965;28;20033;-70
2021/04/18 04:16:30;;;;;;;9.45;7.93;;;7.60;99.90;;;;;;2097491;28;20466;-70
2021/04/18 04:17:30;;;;;;;10.50;7.78;;;7.60;99.90;;;;;;2096818;28;20017;-70
2021/04/18 04:18:31;;;;;;;10.20;7.93;;;7.70;99.90;;;;;;2097225;28;20471;-70
2021/04/18 04:19:32;;;;;;;11.80;8.45;;;7.60;99.90;;;;;;2096732;28;20020;-70
2021/04/18 04:20:32;;;;;;;10.35;7.70;;;7.60;99.90;;;;;;2095986;28;20025;-70
2021/04/18 04:21:33;;;;;;;16.63;8.10;;;7.60;99.90;;;;;;2088288;28;20029;-70
2021/04/18 04:22:33;;;;;;;9.82;7.82;;;7.70;99.90;;;;;;2096144;28;20061;-70
2021/04/18 04:23:35;;;;;;;12.43;8.15;;;7.70;99.90;;;;;;2097534;28;20047;-70
2021/04/18 04:24:35;;;;;;;11.55;7.70;;;7.60;99.90;;;;;;2096745;28;20044;-70
2021/04/18 04:25:36;;;;;;;11.20;7.68;;;7.70;99.90;;;;;;2097158;28;20029;-70
2021/04/18 04:26:36;;;;;;;10.63;8.10;;;7.70;99.90;;;;;;2097256;28;20086;-70
2021/04/18 04:27:38;;;;;;;10.25;7.22;;;7.70;99.90;;;;;;2096728;28;20108;-70
2021/04/18 04:28:38;;;;;;;13.75;8.02;;;7.70;99.90;;;;;;2097269;28;20075;-70
2021/04/18 04:29:39;;;;;;;11.60;7.70;;;7.70;99.90;;;;;;2097224;28;20039;-70
2021/04/18 04:30:39;;;;;;;10.77;7.57;;;7.70;99.90;;;;;;2096911;28;20028;-70
2021/04/18 04:31:40;;;;;;;11.93;7.53;;;7.70;99.90;;;;;;2096897;28;20060;-70
2021/04/18 04:32:41;;;;;;;10.02;7.85;;;7.70;99.90;;;;;;2096087;28;20035;-70
2021/04/18 04:33:41;;;;;;;11.32;7.53;;;7.70;99.90;;;;;;2097178;28;20103;-70
2021/04/18 04:34:42;;;;;;;9.45;7.57;;;7.80;99.90;;;;;;2096743;28;20511;-70
2021/04/18 04:35:43;;;;;;;12.35;7.85;;;7.80;99.90;;;;;;2097126;28;20112;-70
2021/04/18 04:36:44;;;;;;;10.32;7.43;;;7.80;99.90;;;;;;2096588;28;20032;-70
2021/04/18 04:37:45;;;;;;;11.48;7.47;;;7.80;99.90;;;;;;2097065;28;20496;-70
2021/04/18 04:38:45;;;;;;;8.77;7.82;;;7.80;99.90;;;;;;2096734;28;20066;-70
2021/04/18 04:39:46;;;;;;;12.25;7.88;;;7.80;99.90;;;;;;2097079;28;20028;-70
2021/04/18 04:40:46;;;;;;;11.00;7.80;;;7.80;99.90;;;;;;2096945;28;20464;-70
2021/04/18 04:41:47;;;;;;;12.02;7.80;;;7.80;99.90;;;;;;2100985;28;20024;-70
2021/04/18 04:42:47;;;;;;;12.75;7.93;;;7.80;99.90;;;;;;2104670;28;20043;-70
2021/04/18 04:43:48;;;;;;;11.35;7.93;;;7.90;99.90;;;;;;2105517;28;20469;-70
2021/04/18 04:44:49;;;;;;;10.68;7.72;;;7.90;99.90;;;;;;2101436;28;20545;-70
2021/04/18 04:45:50;;;;;;;9.38;7.45;;;7.90;99.90;;;;;;2105304;28;20418;-70
2021/04/18 04:46:50;;;;;;;12.77;7.85;;;7.90;99.90;;;;;;2105057;28;20032;-70
2021/04/18 04:47:51;;;;;;;11.57;7.70;;;7.90;99.90;;;;;;2105263;28;20593;-70
2021/04/18 04:48:51;;;;;;;12.50;8.07;;;7.90;99.90;;;;;;2104768;28;20028;-70
2021/04/18 04:49:52;;;;;;;9.90;7.25;;;7.90;99.90;;;;;;2102244;28;20127;-70
2021/04/18 04:50:52;;;;;;;9.77;7.50;;;7.90;99.90;;;;;;2104279;28;20110;-70
2021/04/18 04:51:53;;;;;;;10.13;7.13;;;7.90;99.90;;;;;;2097011;28;20033;-70
2021/04/18 04:52:54;;;;;;;13.98;7.75;;;7.90;99.90;;;;;;2096090;28;20047;-70
2021/04/18 04:53:54;;;;;;;10.95;7.40;;;7.90;99.90;;;;;;2096865;28;20333;-70
2021/04/18 04:54:55;;;;;;;14.43;7.97;;;7.90;99.90;;;;;;2101328;28;20059;-70
2021/04/18 04:55:56;;;;;;;8.40;7.45;;;7.90;99.90;;;;;;2105349;28;20368;-70
2021/04/18 04:56:56;;;;;;;9.52;7.85;;;7.90;99.90;;;;;;2097084;28;20078;-70
2021/04/18 04:57:57;;;;;;;13.20;7.43;;;8.00;99.90;;;;;;2099938;28;20487;-70
2021/04/18 04:58:58;;;;;;;9.70;7.43;;;8.00;99.90;;;;;;2104471;28;20059;-70
2021/04/18 04:59:58;;;;;;;9.15;6.90;;;8.00;99.90;;;;;;2104554;28;20028;-70
2021/04/18 05:00:59;;;;;;;11.45;7.70;;;8.00;99.90;;;;;;2104577;28;20126;-70
2021/04/18 05:02:00;;;;;;;8.43;7.00;;;8.00;99.90;;;;;;2105584;28;20079;-70
2021/04/18 05:03:00;;;;;;;9.45;7.15;;;8.00;99.90;;;;;;2104410;28;20032;-70
2021/04/18 05:04:01;;;;;;;12.68;8.02;;;8.00;99.90;;;;;;2105253;28;20035;-70
2021/04/18 05:05:02;;;;;;;11.75;7.88;;;8.10;99.90;;;;;;2098339;28;20033;-70
2021/04/18 05:06:03;;;;;;;11.27;7.15;;;8.10;99.90;;;;;;2099498;28;20032;-70
2021/04/18 05:07:03;;;;;;;14.57;8.20;;;8.10;99.90;;;;;;2105073;28;20028;-70
2021/04/18 05:08:04;;;;;;;12.10;7.30;;;8.10;99.90;;;;;;2104947;28;20028;-70
2021/04/18 05:09:05;;;;;;;11.40;7.22;;;8.10;99.90;;;;;;2104871;28;20056;-70
2021/04/18 05:10:06;;;;;;;15.95;7.30;;;8.10;99.90;;;;;;2105102;28;20032;-70
2021/04/18 05:11:07;;;;;;;15.30;7.43;;;8.10;99.90;;;;;;2104968;28;20040;-70
2021/04/18 05:12:09;;;;;;;12.85;7.40;;;8.20;99.90;;;;;;2104815;28;20043;-70
2021/04/18 05:13:09;;;;;;;10.45;6.53;;;8.20;99.90;;;;;;2104826;28;20499;-70
2021/04/18 05:14:10;;;;;;;13.30;7.13;;;8.20;99.90;;;;;;2105108;28;20395;-70
2021/04/18 05:15:11;;;;;;;8.85;6.72;;;8.20;99.90;;;;;;2098173;28;20448;-70
2021/04/18 05:16:12;;;;;;;13.73;7.10;;;8.20;99.90;;;;;;2096362;28;20051;-70
2021/04/18 05:17:12;;;;;;;10.27;7.18;;;8.20;99.90;;;;;;2095166;28;20115;-70
2021/04/18 05:18:13;;;;;;;13.07;8.10;;;8.20;99.90;;;;;;2087450;28;20039;-70
2021/04/18 05:19:13;;;;;;;10.02;7.20;;;8.20;99.90;;;;;;2096078;28;20043;-70